sensor_id;sensor_type;location;lat;lon;timestamp;P1;durP1;ratioP1;P2;durP2;ratioP2
62654;SDS011;48717;55.556;37.816;2022-11-20T00:01:27;21.23;;;9.18;;
62654;SDS011;48717;55.556;37.816;2022-11-20T00:03:55;23.83;;;10.82;;
62654;SDS011;48717;55.556;37.816;2022-11-20T00:06:25;28.17;;;12.60;;
62654;SDS011;48717;55.556;37.816;2022-11-20T00:08:54;27.15;;;10.60;;
62654;SDS011;48717;55.556;37.816;2022-11-20T00:11:23;27.73;;;10.32;;
62654;SDS011;48717;55.556;37.816;2022-11-20T00:13:53;22.30;;;9.82;;
62654;SDS011;48717;55.556;37.816;2022-11-20T00:16:24;22.73;;;9.90;;
62654;SDS011;48717;55.556;37.816;2022-11-20T00:18:53;28.38;;;11.05;;
62654;SDS011;48717;55.556;37.816;2022-11-20T00:21:22;27.08;;;11.43;;
62654;SDS011;48717;55.556;37.816;2022-11-20T00:23:51;29.30;;;12.13;;
62654;SDS011;48717;55.556;37.816;2022-11-20T00:26:23;25.58;;;10.77;;
62654;SDS011;48717;55.556;37.816;2022-11-20T00:28:59;23.10;;;10.73;;
62654;SDS011;48717;55.556;37.816;2022-11-20T00:31:27;24.13;;;9.65;;
62654;SDS011;48717;55.556;37.816;2022-11-20T00:33:55;22.27;;;9.55;;
62654;SDS011;48717;55.556;37.816;2022-11-20T00:36:23;23.92;;;10.35;;
62654;SDS011;48717;55.556;37.816;2022-11-20T00:38:52;22.75;;;9.90;;
62654;SDS011;48717;55.556;37.816;2022-11-20T00:41:21;22.33;;;10.30;;
62654;SDS011;48717;55.556;37.816;2022-11-20T00:43:49;22.77;;;10.27;;
62654;SDS011;48717;55.556;37.816;2022-11-20T00:46:21;26.23;;;10.57;;
62654;SDS011;48717;55.556;37.816;2022-11-20T00:48:50;18.30;;;8.48;;
62654;SDS011;48717;55.556;37.816;2022-11-20T00:51:18;23.02;;;10.90;;
62654;SDS011;48717;55.556;37.816;2022-11-20T00:53:47;25.10;;;10.48;;
62654;SDS011;48717;55.556;37.816;2022-11-20T00:56:15;22.35;;;9.65;;
62654;SDS011;48717;55.556;37.816;2022-11-20T00:58:44;25.02;;;11.68;;
62654;SDS011;48717;55.556;37.816;2022-11-20T01:01:17;20.90;;;9.70;;
62654;SDS011;48717;55.556;37.816;2022-11-20T01:03:47;24.75;;;11.68;;
62654;SDS011;48717;55.556;37.816;2022-11-20T01:06:16;22.42;;;10.52;;
62654;SDS011;48717;55.556;37.816;2022-11-20T01:08:55;22.63;;;9.88;;
62654;SDS011;48717;55.556;37.816;2022-11-20T01:11:28;22.97;;;10.50;;
62654;SDS011;48717;55.556;37.816;2022-11-20T01:13:57;20.70;;;8.57;;
62654;SDS011;48717;55.556;37.816;2022-11-20T01:16:27;18.40;;;9.13;;
62654;SDS011;48717;55.556;37.816;2022-11-20T01:18:59;19.08;;;8.70;;
62654;SDS011;48717;55.556;37.816;2022-11-20T01:21:28;19.60;;;8.48;;
62654;SDS011;48717;55.556;37.816;2022-11-20T01:23:58;21.45;;;9.57;;
62654;SDS011;48717;55.556;37.816;2022-11-20T01:26:27;20.38;;;8.73;;
62654;SDS011;48717;55.556;37.816;2022-11-20T01:28:56;26.85;;;10.80;;
62654;SDS011;48717;55.556;37.816;2022-11-20T01:31:28;23.48;;;9.80;;
62654;SDS011;48717;55.556;37.816;2022-11-20T01:33:58;20.48;;;9.05;;
62654;SDS011;48717;55.556;37.816;2022-11-20T01:36:27;21.80;;;10.48;;
62654;SDS011;48717;55.556;37.816;2022-11-20T01:38:57;22.17;;;10.57;;
62654;SDS011;48717;55.556;37.816;2022-11-20T01:41:26;25.75;;;10.23;;
62654;SDS011;48717;55.556;37.816;2022-11-20T01:44:14;22.20;;;9.48;;
62654;SDS011;48717;55.556;37.816;2022-11-20T01:47:03;18.92;;;8.48;;
62654;SDS011;48717;55.556;37.816;2022-11-20T01:49:34;24.77;;;9.52;;
62654;SDS011;48717;55.556;37.816;2022-11-20T01:52:20;17.38;;;7.88;;
62654;SDS011;48717;55.556;37.816;2022-11-20T01:54:59;20.35;;;9.82;;
62654;SDS011;48717;55.556;37.816;2022-11-20T01:57:32;18.40;;;8.30;;
62654;SDS011;48717;55.556;37.816;2022-11-20T02:00:08;18.85;;;7.53;;
62654;SDS011;48717;55.556;37.816;2022-11-20T02:02:39;24.77;;;9.30;;
62654;SDS011;48717;55.556;37.816;2022-11-20T02:07:49;20.88;;;9.52;;
62654;SDS011;48717;55.556;37.816;2022-11-20T02:10:17;21.05;;;9.80;;
62654;SDS011;48717;55.556;37.816;2022-11-20T02:12:45;25.27;;;10.98;;
62654;SDS011;48717;55.556;37.816;2022-11-20T02:15:32;20.35;;;9.90;;
62654;SDS011;48717;55.556;37.816;2022-11-20T02:17:59;20.15;;;9.45;;
62654;SDS011;48717;55.556;37.816;2022-11-20T02:20:27;19.63;;;8.98;;
62654;SDS011;48717;55.556;37.816;2022-11-20T02:22:56;24.48;;;10.63;;
62654;SDS011;48717;55.556;37.816;2022-11-20T02:25:28;21.65;;;9.50;;
62654;SDS011;48717;55.556;37.816;2022-11-20T02:27:58;19.95;;;9.27;;
62654;SDS011;48717;55.556;37.816;2022-11-20T02:30:28;21.80;;;9.27;;
62654;SDS011;48717;55.556;37.816;2022-11-20T02:32:55;18.08;;;8.23;;
62654;SDS011;48717;55.556;37.816;2022-11-20T02:37:57;21.25;;;8.80;;
62654;SDS011;48717;55.556;37.816;2022-11-20T02:40:28;18.98;;;9.68;;
62654;SDS011;48717;55.556;37.816;2022-11-20T02:42:56;22.70;;;9.07;;
62654;SDS011;48717;55.556;37.816;2022-11-20T02:45:24;21.75;;;9.35;;
62654;SDS011;48717;55.556;37.816;2022-11-20T02:47:51;20.05;;;8.75;;
62654;SDS011;48717;55.556;37.816;2022-11-20T02:50:19;20.77;;;8.68;;
62654;SDS011;48717;55.556;37.816;2022-11-20T02:52:46;19.90;;;8.90;;
62654;SDS011;48717;55.556;37.816;2022-11-20T02:55:13;17.63;;;8.55;;
62654;SDS011;48717;55.556;37.816;2022-11-20T02:57:40;18.05;;;8.27;;
62654;SDS011;48717;55.556;37.816;2022-11-20T03:00:07;18.10;;;8.95;;
62654;SDS011;48717;55.556;37.816;2022-11-20T03:02:35;19.30;;;8.30;;
62654;SDS011;48717;55.556;37.816;2022-11-20T03:05:03;20.33;;;8.02;;
62654;SDS011;48717;55.556;37.816;2022-11-20T03:07:30;20.27;;;8.80;;
62654;SDS011;48717;55.556;37.816;2022-11-20T03:09:57;18.65;;;8.68;;
62654;SDS011;48717;55.556;37.816;2022-11-20T03:12:25;19.45;;;8.15;;
62654;SDS011;48717;55.556;37.816;2022-11-20T03:14:52;7.55;;;3.88;;
62654;SDS011;48717;55.556;37.816;2022-11-20T03:17:19;18.05;;;8.10;;
62654;SDS011;48717;55.556;37.816;2022-11-20T03:19:46;18.17;;;7.93;;
62654;SDS011;48717;55.556;37.816;2022-11-20T03:22:13;17.13;;;8.05;;
62654;SDS011;48717;55.556;37.816;2022-11-20T03:24:43;16.85;;;8.18;;
62654;SDS011;48717;55.556;37.816;2022-11-20T03:27:10;17.58;;;8.35;;
62654;SDS011;48717;55.556;37.816;2022-11-20T03:29:39;15.50;;;6.72;;
62654;SDS011;48717;55.556;37.816;2022-11-20T03:32:07;19.45;;;8.23;;
62654;SDS011;48717;55.556;37.816;2022-11-20T03:34:35;17.17;;;8.80;;
62654;SDS011;48717;55.556;37.816;2022-11-20T03:37:03;20.42;;;8.63;;
62654;SDS011;48717;55.556;37.816;2022-11-20T03:39:30;20.33;;;8.88;;
62654;SDS011;48717;55.556;37.816;2022-11-20T03:41:57;16.02;;;7.35;;
62654;SDS011;48717;55.556;37.816;2022-11-20T03:44:24;19.60;;;9.15;;
62654;SDS011;48717;55.556;37.816;2022-11-20T03:46:52;21.42;;;8.88;;
62654;SDS011;48717;55.556;37.816;2022-11-20T03:49:20;17.88;;;7.97;;
62654;SDS011;48717;55.556;37.816;2022-11-20T03:51:48;19.00;;;9.27;;
62654;SDS011;48717;55.556;37.816;2022-11-20T03:54:15;18.20;;;8.13;;
62654;SDS011;48717;55.556;37.816;2022-11-20T03:56:42;15.13;;;7.32;;
62654;SDS011;48717;55.556;37.816;2022-11-20T03:59:10;17.58;;;8.13;;
62654;SDS011;48717;55.556;37.816;2022-11-20T04:01:37;21.63;;;9.50;;
62654;SDS011;48717;55.556;37.816;2022-11-20T04:04:05;20.95;;;8.30;;
62654;SDS011;48717;55.556;37.816;2022-11-20T04:06:34;21.20;;;9.18;;
62654;SDS011;48717;55.556;37.816;2022-11-20T04:09:03;19.20;;;9.02;;
62654;SDS011;48717;55.556;37.816;2022-11-20T04:11:31;22.55;;;9.55;;
62654;SDS011;48717;55.556;37.816;2022-11-20T04:14:01;18.38;;;8.30;;
62654;SDS011;48717;55.556;37.816;2022-11-20T04:16:31;17.70;;;8.43;;
62654;SDS011;48717;55.556;37.816;2022-11-20T04:19:02;19.77;;;8.50;;
62654;SDS011;48717;55.556;37.816;2022-11-20T04:23:58;19.52;;;8.48;;
62654;SDS011;48717;55.556;37.816;2022-11-20T04:26:27;19.90;;;8.93;;
62654;SDS011;48717;55.556;37.816;2022-11-20T04:28:55;18.40;;;8.50;;
62654;SDS011;48717;55.556;37.816;2022-11-20T04:31:23;20.55;;;9.35;;
62654;SDS011;48717;55.556;37.816;2022-11-20T04:33:52;14.50;;;7.00;;
62654;SDS011;48717;55.556;37.816;2022-11-20T04:36:25;20.90;;;9.30;;
62654;SDS011;48717;55.556;37.816;2022-11-20T04:38:53;20.30;;;8.07;;
62654;SDS011;48717;55.556;37.816;2022-11-20T04:41:29;18.65;;;8.35;;
62654;SDS011;48717;55.556;37.816;2022-11-20T04:43:59;17.00;;;8.02;;
62654;SDS011;48717;55.556;37.816;2022-11-20T04:46:31;15.70;;;8.35;;
62654;SDS011;48717;55.556;37.816;2022-11-20T04:49:01;20.27;;;9.40;;
62654;SDS011;48717;55.556;37.816;2022-11-20T04:51:33;18.95;;;8.70;;
62654;SDS011;48717;55.556;37.816;2022-11-20T04:54:01;19.95;;;8.73;;
62654;SDS011;48717;55.556;37.816;2022-11-20T04:56:28;15.43;;;7.40;;
62654;SDS011;48717;55.556;37.816;2022-11-20T04:58:55;19.58;;;9.05;;
62654;SDS011;48717;55.556;37.816;2022-11-20T05:01:26;21.33;;;8.98;;
62654;SDS011;48717;55.556;37.816;2022-11-20T05:03:54;18.00;;;8.70;;
62654;SDS011;48717;55.556;37.816;2022-11-20T05:06:21;20.42;;;8.95;;
62654;SDS011;48717;55.556;37.816;2022-11-20T05:08:48;16.15;;;7.88;;
62654;SDS011;48717;55.556;37.816;2022-11-20T05:11:17;18.73;;;9.00;;
62654;SDS011;48717;55.556;37.816;2022-11-20T05:13:46;16.05;;;6.63;;
62654;SDS011;48717;55.556;37.816;2022-11-20T05:16:16;15.57;;;7.78;;
62654;SDS011;48717;55.556;37.816;2022-11-20T05:18:47;17.15;;;7.72;;
62654;SDS011;48717;55.556;37.816;2022-11-20T05:21:14;16.90;;;7.40;;
62654;SDS011;48717;55.556;37.816;2022-11-20T05:23:43;16.52;;;8.05;;
62654;SDS011;48717;55.556;37.816;2022-11-20T05:26:15;17.45;;;8.50;;
62654;SDS011;48717;55.556;37.816;2022-11-20T05:28:44;17.45;;;7.97;;
62654;SDS011;48717;55.556;37.816;2022-11-20T05:31:14;18.70;;;7.65;;
62654;SDS011;48717;55.556;37.816;2022-11-20T05:33:52;17.58;;;7.63;;
62654;SDS011;48717;55.556;37.816;2022-11-20T05:36:20;15.40;;;7.45;;
62654;SDS011;48717;55.556;37.816;2022-11-20T05:38:48;16.83;;;7.53;;
62654;SDS011;48717;55.556;37.816;2022-11-20T05:41:17;19.05;;;8.15;;
62654;SDS011;48717;55.556;37.816;2022-11-20T05:43:47;18.88;;;8.57;;
62654;SDS011;48717;55.556;37.816;2022-11-20T05:46:15;18.90;;;9.10;;
62654;SDS011;48717;55.556;37.816;2022-11-20T05:48:50;19.70;;;7.72;;
62654;SDS011;48717;55.556;37.816;2022-11-20T05:51:18;19.20;;;8.32;;
62654;SDS011;48717;55.556;37.816;2022-11-20T05:53:46;15.95;;;7.30;;
62654;SDS011;48717;55.556;37.816;2022-11-20T05:56:18;21.10;;;8.90;;
62654;SDS011;48717;55.556;37.816;2022-11-20T05:58:47;16.65;;;8.27;;
62654;SDS011;48717;55.556;37.816;2022-11-20T06:01:16;16.38;;;7.60;;
62654;SDS011;48717;55.556;37.816;2022-11-20T06:03:48;22.67;;;9.50;;
62654;SDS011;48717;55.556;37.816;2022-11-20T06:06:17;16.95;;;8.20;;
62654;SDS011;48717;55.556;37.816;2022-11-20T06:08:45;26.40;;;11.35;;
62654;SDS011;48717;55.556;37.816;2022-11-20T06:11:13;18.30;;;8.38;;
62654;SDS011;48717;55.556;37.816;2022-11-20T06:13:41;20.10;;;8.95;;
62654;SDS011;48717;55.556;37.816;2022-11-20T06:16:09;20.73;;;9.07;;
62654;SDS011;48717;55.556;37.816;2022-11-20T06:18:39;18.42;;;8.63;;
62654;SDS011;48717;55.556;37.816;2022-11-20T06:21:10;18.90;;;9.13;;
62654;SDS011;48717;55.556;37.816;2022-11-20T06:23:40;23.77;;;10.40;;
62654;SDS011;48717;55.556;37.816;2022-11-20T06:26:08;23.63;;;9.70;;
62654;SDS011;48717;55.556;37.816;2022-11-20T06:28:55;20.80;;;9.88;;
62654;SDS011;48717;55.556;37.816;2022-11-20T06:31:25;20.58;;;9.90;;
62654;SDS011;48717;55.556;37.816;2022-11-20T06:33:53;18.73;;;8.70;;
62654;SDS011;48717;55.556;37.816;2022-11-20T06:36:21;21.40;;;9.85;;
62654;SDS011;48717;55.556;37.816;2022-11-20T06:38:49;23.20;;;10.50;;
62654;SDS011;48717;55.556;37.816;2022-11-20T06:41:17;23.98;;;9.88;;
62654;SDS011;48717;55.556;37.816;2022-11-20T06:43:46;20.35;;;9.02;;
62654;SDS011;48717;55.556;37.816;2022-11-20T06:46:14;21.40;;;9.25;;
62654;SDS011;48717;55.556;37.816;2022-11-20T06:48:44;21.88;;;9.48;;
62654;SDS011;48717;55.556;37.816;2022-11-20T06:51:12;24.35;;;10.77;;
62654;SDS011;48717;55.556;37.816;2022-11-20T06:53:43;23.17;;;10.23;;
62654;SDS011;48717;55.556;37.816;2022-11-20T06:56:10;22.58;;;9.73;;
62654;SDS011;48717;55.556;37.816;2022-11-20T06:58:38;18.42;;;8.80;;
62654;SDS011;48717;55.556;37.816;2022-11-20T07:01:06;23.75;;;10.07;;
62654;SDS011;48717;55.556;37.816;2022-11-20T07:03:36;22.60;;;9.02;;
62654;SDS011;48717;55.556;37.816;2022-11-20T07:06:04;20.02;;;10.07;;
62654;SDS011;48717;55.556;37.816;2022-11-20T07:08:32;21.10;;;9.55;;
62654;SDS011;48717;55.556;37.816;2022-11-20T07:11:01;20.88;;;8.93;;
62654;SDS011;48717;55.556;37.816;2022-11-20T07:13:30;22.55;;;9.55;;
62654;SDS011;48717;55.556;37.816;2022-11-20T07:16:01;23.45;;;10.57;;
62654;SDS011;48717;55.556;37.816;2022-11-20T07:18:32;26.50;;;10.90;;
62654;SDS011;48717;55.556;37.816;2022-11-20T07:21:04;24.25;;;10.77;;
62654;SDS011;48717;55.556;37.816;2022-11-20T07:23:34;28.05;;;11.73;;
62654;SDS011;48717;55.556;37.816;2022-11-20T07:26:02;24.10;;;11.85;;
62654;SDS011;48717;55.556;37.816;2022-11-20T07:28:35;22.85;;;10.63;;
62654;SDS011;48717;55.556;37.816;2022-11-20T07:31:02;25.23;;;11.27;;
62654;SDS011;48717;55.556;37.816;2022-11-20T07:33:31;32.75;;;14.05;;
62654;SDS011;48717;55.556;37.816;2022-11-20T07:35:58;35.00;;;14.50;;
62654;SDS011;48717;55.556;37.816;2022-11-20T07:38:26;31.33;;;12.70;;
62654;SDS011;48717;55.556;37.816;2022-11-20T07:40:57;32.22;;;13.50;;
62654;SDS011;48717;55.556;37.816;2022-11-20T07:43:25;32.08;;;14.02;;
62654;SDS011;48717;55.556;37.816;2022-11-20T07:45:56;30.60;;;13.35;;
62654;SDS011;48717;55.556;37.816;2022-11-20T07:48:24;28.35;;;12.73;;
62654;SDS011;48717;55.556;37.816;2022-11-20T07:50:55;28.17;;;11.48;;
62654;SDS011;48717;55.556;37.816;2022-11-20T07:53:23;27.92;;;11.68;;
62654;SDS011;48717;55.556;37.816;2022-11-20T07:55:51;27.45;;;13.23;;
62654;SDS011;48717;55.556;37.816;2022-11-20T07:58:19;19.23;;;8.88;;
62654;SDS011;48717;55.556;37.816;2022-11-20T08:00:47;25.55;;;10.93;;
62654;SDS011;48717;55.556;37.816;2022-11-20T08:03:14;26.02;;;11.82;;
62654;SDS011;48717;55.556;37.816;2022-11-20T08:05:49;28.02;;;11.93;;
62654;SDS011;48717;55.556;37.816;2022-11-20T08:08:17;29.25;;;12.90;;
62654;SDS011;48717;55.556;37.816;2022-11-20T08:10:47;29.15;;;13.55;;
62654;SDS011;48717;55.556;37.816;2022-11-20T08:13:15;30.77;;;13.00;;
62654;SDS011;48717;55.556;37.816;2022-11-20T08:16:05;34.47;;;14.38;;
62654;SDS011;48717;55.556;37.816;2022-11-20T08:18:32;28.02;;;13.85;;
62654;SDS011;48717;55.556;37.816;2022-11-20T08:21:03;30.17;;;13.75;;
62654;SDS011;48717;55.556;37.816;2022-11-20T08:23:31;27.95;;;13.02;;
62654;SDS011;48717;55.556;37.816;2022-11-20T08:25:58;25.95;;;12.38;;
62654;SDS011;48717;55.556;37.816;2022-11-20T08:28:25;27.02;;;12.40;;
62654;SDS011;48717;55.556;37.816;2022-11-20T08:30:57;31.05;;;13.85;;
62654;SDS011;48717;55.556;37.816;2022-11-20T08:33:25;32.80;;;12.20;;
62654;SDS011;48717;55.556;37.816;2022-11-20T08:35:53;31.83;;;12.93;;
62654;SDS011;48717;55.556;37.816;2022-11-20T08:38:20;28.77;;;12.80;;
62654;SDS011;48717;55.556;37.816;2022-11-20T08:40:49;30.77;;;13.25;;
62654;SDS011;48717;55.556;37.816;2022-11-20T08:43:36;31.30;;;13.63;;
62654;SDS011;48717;55.556;37.816;2022-11-20T08:46:03;30.75;;;14.00;;
62654;SDS011;48717;55.556;37.816;2022-11-20T08:48:30;29.83;;;12.45;;
62654;SDS011;48717;55.556;37.816;2022-11-20T08:51:00;29.55;;;12.48;;
62654;SDS011;48717;55.556;37.816;2022-11-20T08:53:27;30.65;;;13.32;;
62654;SDS011;48717;55.556;37.816;2022-11-20T08:55:54;28.83;;;14.32;;
62654;SDS011;48717;55.556;37.816;2022-11-20T08:58:24;29.98;;;13.13;;
62654;SDS011;48717;55.556;37.816;2022-11-20T09:00:52;32.33;;;13.40;;
62654;SDS011;48717;55.556;37.816;2022-11-20T09:03:19;30.50;;;13.73;;
62654;SDS011;48717;55.556;37.816;2022-11-20T09:05:47;35.80;;;13.93;;
62654;SDS011;48717;55.556;37.816;2022-11-20T09:08:14;29.55;;;11.75;;
62654;SDS011;48717;55.556;37.816;2022-11-20T09:10:41;32.63;;;12.35;;
62654;SDS011;48717;55.556;37.816;2022-11-20T09:13:08;28.08;;;12.65;;
62654;SDS011;48717;55.556;37.816;2022-11-20T09:15:38;27.90;;;11.73;;
62654;SDS011;48717;55.556;37.816;2022-11-20T09:18:06;28.15;;;12.43;;
62654;SDS011;48717;55.556;37.816;2022-11-20T09:20:33;29.77;;;12.05;;
62654;SDS011;48717;55.556;37.816;2022-11-20T09:23:00;30.27;;;12.02;;
62654;SDS011;48717;55.556;37.816;2022-11-20T09:25:28;29.35;;;12.38;;
62654;SDS011;48717;55.556;37.816;2022-11-20T09:27:56;36.08;;;12.55;;
62654;SDS011;48717;55.556;37.816;2022-11-20T09:30:26;33.95;;;12.60;;
62654;SDS011;48717;55.556;37.816;2022-11-20T09:32:54;29.98;;;12.70;;
62654;SDS011;48717;55.556;37.816;2022-11-20T09:35:21;28.65;;;12.32;;
62654;SDS011;48717;55.556;37.816;2022-11-20T09:37:48;34.50;;;11.98;;
62654;SDS011;48717;55.556;37.816;2022-11-20T09:40:26;34.60;;;13.10;;
62654;SDS011;48717;55.556;37.816;2022-11-20T09:42:56;29.73;;;11.10;;
62654;SDS011;48717;55.556;37.816;2022-11-20T09:51:48;32.55;;;12.23;;
62654;SDS011;48717;55.556;37.816;2022-11-20T09:54:22;36.28;;;12.95;;
62654;SDS011;48717;55.556;37.816;2022-11-20T09:56:53;53.25;;;19.83;;
62654;SDS011;48717;55.556;37.816;2022-11-20T09:59:36;36.45;;;13.40;;
62654;SDS011;48717;55.556;37.816;2022-11-20T10:05:04;34.25;;;13.10;;
62654;SDS011;48717;55.556;37.816;2022-11-20T10:07:40;41.00;;;14.23;;
62654;SDS011;48717;55.556;37.816;2022-11-20T10:10:20;40.97;;;14.82;;
62654;SDS011;48717;55.556;37.816;2022-11-20T10:13:00;42.55;;;15.60;;
62654;SDS011;48717;55.556;37.816;2022-11-20T10:15:38;45.65;;;14.93;;
62654;SDS011;48717;55.556;37.816;2022-11-20T10:18:19;44.33;;;15.77;;
62654;SDS011;48717;55.556;37.816;2022-11-20T10:26:42;47.30;;;16.08;;
62654;SDS011;48717;55.556;37.816;2022-11-20T10:29:33;42.47;;;14.15;;
62654;SDS011;48717;55.556;37.816;2022-11-20T10:32:04;50.83;;;15.95;;
62654;SDS011;48717;55.556;37.816;2022-11-20T10:34:43;42.67;;;13.73;;
62654;SDS011;48717;55.556;37.816;2022-11-20T10:37:12;48.70;;;15.43;;
62654;SDS011;48717;55.556;37.816;2022-11-20T10:48:26;54.00;;;16.10;;
62654;SDS011;48717;55.556;37.816;2022-11-20T10:56:16;49.95;;;16.77;;
62654;SDS011;48717;55.556;37.816;2022-11-20T10:58:48;37.10;;;13.43;;
62654;SDS011;48717;55.556;37.816;2022-11-20T11:01:19;43.83;;;15.63;;
62654;SDS011;48717;55.556;37.816;2022-11-20T11:03:50;58.63;;;17.05;;
62654;SDS011;48717;55.556;37.816;2022-11-20T11:08:49;46.70;;;15.60;;
62654;SDS011;48717;55.556;37.816;2022-11-20T11:11:23;47.30;;;15.63;;
62654;SDS011;48717;55.556;37.816;2022-11-20T11:14:04;48.28;;;15.50;;
62654;SDS011;48717;55.556;37.816;2022-11-20T11:16:32;40.33;;;14.70;;
62654;SDS011;48717;55.556;37.816;2022-11-20T11:19:06;50.95;;;15.70;;
62654;SDS011;48717;55.556;37.816;2022-11-20T11:21:38;48.30;;;14.73;;
62654;SDS011;48717;55.556;37.816;2022-11-20T11:27:13;38.35;;;13.85;;
62654;SDS011;48717;55.556;37.816;2022-11-20T11:29:45;30.33;;;11.38;;
62654;SDS011;48717;55.556;37.816;2022-11-20T11:34:41;35.55;;;13.18;;
62654;SDS011;48717;55.556;37.816;2022-11-20T11:37:51;27.38;;;11.38;;
62654;SDS011;48717;55.556;37.816;2022-11-20T11:40:05;23.40;;;10.05;;
62654;SDS011;48717;55.556;37.816;2022-11-20T11:43:04;26.15;;;9.60;;
62654;SDS011;48717;55.556;37.816;2022-11-20T11:45:53;30.53;;;10.33;;
62654;SDS011;48717;55.556;37.816;2022-11-20T11:48:22;24.95;;;9.00;;
62654;SDS011;48717;55.556;37.816;2022-11-20T11:50:51;31.70;;;12.48;;
62654;SDS011;48717;55.556;37.816;2022-11-20T11:53:19;29.05;;;11.13;;
62654;SDS011;48717;55.556;37.816;2022-11-20T11:56:03;25.17;;;10.35;;
62654;SDS011;48717;55.556;37.816;2022-11-20T11:58:45;17.98;;;7.57;;
62654;SDS011;48717;55.556;37.816;2022-11-20T12:01:25;29.00;;;11.00;;
62654;SDS011;48717;55.556;37.816;2022-11-20T12:07:00;23.33;;;10.50;;
62654;SDS011;48717;55.556;37.816;2022-11-20T12:09:54;22.35;;;9.93;;
62654;SDS011;48717;55.556;37.816;2022-11-20T12:12:40;22.48;;;10.30;;
62654;SDS011;48717;55.556;37.816;2022-11-20T12:15:11;21.25;;;9.10;;
62654;SDS011;48717;55.556;37.816;2022-11-20T12:17:42;26.90;;;10.90;;
62654;SDS011;48717;55.556;37.816;2022-11-20T12:20:15;22.45;;;10.32;;
62654;SDS011;48717;55.556;37.816;2022-11-20T12:25:24;27.30;;;11.75;;
62654;SDS011;48717;55.556;37.816;2022-11-20T12:30:58;19.20;;;9.43;;
62654;SDS011;48717;55.556;37.816;2022-11-20T12:36:17;14.88;;;6.57;;
62654;SDS011;48717;55.556;37.816;2022-11-20T12:58:59;26.30;;;11.70;;
62654;SDS011;48717;55.556;37.816;2022-11-20T13:07:12;29.63;;;11.98;;
62654;SDS011;48717;55.556;37.816;2022-11-20T13:09:45;27.23;;;11.38;;
62654;SDS011;48717;55.556;37.816;2022-11-20T13:14:53;34.53;;;12.02;;
62654;SDS011;48717;55.556;37.816;2022-11-20T13:20:32;21.98;;;9.75;;
62654;SDS011;48717;55.556;37.816;2022-11-20T13:23:00;24.67;;;11.57;;
62654;SDS011;48717;55.556;37.816;2022-11-20T13:25:28;26.63;;;10.38;;
62654;SDS011;48717;55.556;37.816;2022-11-20T13:27:58;29.38;;;12.82;;
62654;SDS011;48717;55.556;37.816;2022-11-20T13:30:27;33.08;;;10.82;;
62654;SDS011;48717;55.556;37.816;2022-11-20T13:35:54;26.45;;;11.48;;
62654;SDS011;48717;55.556;37.816;2022-11-20T13:38:24;25.05;;;10.80;;
62654;SDS011;48717;55.556;37.816;2022-11-20T13:40:57;27.20;;;12.00;;
62654;SDS011;48717;55.556;37.816;2022-11-20T13:43:46;24.90;;;10.90;;
62654;SDS011;48717;55.556;37.816;2022-11-20T13:46:14;27.65;;;11.30;;
62654;SDS011;48717;55.556;37.816;2022-11-20T13:48:43;35.92;;;12.23;;
62654;SDS011;48717;55.556;37.816;2022-11-20T13:51:18;27.15;;;10.40;;
62654;SDS011;48717;55.556;37.816;2022-11-20T13:53:57;24.00;;;11.15;;
62654;SDS011;48717;55.556;37.816;2022-11-20T13:56:51;21.15;;;10.43;;
62654;SDS011;48717;55.556;37.816;2022-11-20T14:02:18;28.55;;;7.72;;
62654;SDS011;48717;55.556;37.816;2022-11-20T14:04:47;34.60;;;12.63;;
62654;SDS011;48717;55.556;37.816;2022-11-20T14:09:52;25.80;;;11.95;;
62654;SDS011;48717;55.556;37.816;2022-11-20T14:12:22;26.52;;;11.98;;
62654;SDS011;48717;55.556;37.816;2022-11-20T14:14:57;30.17;;;12.98;;
62654;SDS011;48717;55.556;37.816;2022-11-20T14:17:32;38.63;;;13.02;;
62654;SDS011;48717;55.556;37.816;2022-11-20T14:20:02;34.92;;;13.77;;
62654;SDS011;48717;55.556;37.816;2022-11-20T14:22:38;44.10;;;14.35;;
62654;SDS011;48717;55.556;37.816;2022-11-20T14:27:40;36.95;;;13.65;;
62654;SDS011;48717;55.556;37.816;2022-11-20T14:30:16;30.92;;;13.60;;
62654;SDS011;48717;55.556;37.816;2022-11-20T14:32:45;31.30;;;12.77;;
62654;SDS011;48717;55.556;37.816;2022-11-20T14:35:23;30.67;;;12.68;;
62654;SDS011;48717;55.556;37.816;2022-11-20T14:37:52;30.63;;;12.98;;
62654;SDS011;48717;55.556;37.816;2022-11-20T14:40:28;42.85;;;12.85;;
62654;SDS011;48717;55.556;37.816;2022-11-20T14:43:04;29.45;;;13.13;;
62654;SDS011;48717;55.556;37.816;2022-11-20T14:45:58;27.58;;;11.75;;
62654;SDS011;48717;55.556;37.816;2022-11-20T14:48:33;29.38;;;13.13;;
62654;SDS011;48717;55.556;37.816;2022-11-20T14:51:05;33.50;;;13.07;;
62654;SDS011;48717;55.556;37.816;2022-11-20T14:53:32;28.67;;;13.13;;
62654;SDS011;48717;55.556;37.816;2022-11-20T14:56:00;32.65;;;13.95;;
62654;SDS011;48717;55.556;37.816;2022-11-20T14:58:32;34.17;;;12.63;;
62654;SDS011;48717;55.556;37.816;2022-11-20T15:01:01;30.42;;;13.45;;
62654;SDS011;48717;55.556;37.816;2022-11-20T15:03:32;32.78;;;12.73;;
62654;SDS011;48717;55.556;37.816;2022-11-20T15:06:01;39.97;;;15.18;;
62654;SDS011;48717;55.556;37.816;2022-11-20T15:08:28;35.80;;;13.27;;
62654;SDS011;48717;55.556;37.816;2022-11-20T15:10:56;41.42;;;14.00;;
62654;SDS011;48717;55.556;37.816;2022-11-20T15:13:32;34.35;;;13.82;;
62654;SDS011;48717;55.556;37.816;2022-11-20T15:16:04;30.40;;;13.27;;
62654;SDS011;48717;55.556;37.816;2022-11-20T15:18:47;30.65;;;12.77;;
62654;SDS011;48717;55.556;37.816;2022-11-20T15:21:17;33.35;;;13.05;;
62654;SDS011;48717;55.556;37.816;2022-11-20T15:23:46;33.15;;;14.43;;
62654;SDS011;48717;55.556;37.816;2022-11-20T15:26:14;32.33;;;13.38;;
62654;SDS011;48717;55.556;37.816;2022-11-20T15:28:57;41.42;;;15.18;;
62654;SDS011;48717;55.556;37.816;2022-11-20T15:31:25;38.15;;;15.07;;
62654;SDS011;48717;55.556;37.816;2022-11-20T15:33:52;32.50;;;14.32;;
62654;SDS011;48717;55.556;37.816;2022-11-20T15:36:19;27.10;;;12.60;;
62654;SDS011;48717;55.556;37.816;2022-11-20T15:38:46;28.67;;;12.13;;
62654;SDS011;48717;55.556;37.816;2022-11-20T15:41:14;29.65;;;14.10;;
62654;SDS011;48717;55.556;37.816;2022-11-20T15:43:41;30.70;;;14.40;;
62654;SDS011;48717;55.556;37.816;2022-11-20T15:46:11;34.35;;;13.93;;
62654;SDS011;48717;55.556;37.816;2022-11-20T15:48:49;30.42;;;12.80;;
62654;SDS011;48717;55.556;37.816;2022-11-20T15:51:27;31.45;;;13.23;;
62654;SDS011;48717;55.556;37.816;2022-11-20T15:53:58;31.75;;;14.88;;
62654;SDS011;48717;55.556;37.816;2022-11-20T15:56:26;28.38;;;12.07;;
62654;SDS011;48717;55.556;37.816;2022-11-20T15:58:53;34.58;;;15.52;;
62654;SDS011;48717;55.556;37.816;2022-11-20T16:01:21;31.58;;;12.63;;
62654;SDS011;48717;55.556;37.816;2022-11-20T16:03:49;30.17;;;13.05;;
62654;SDS011;48717;55.556;37.816;2022-11-20T16:06:16;48.55;;;20.83;;
62654;SDS011;48717;55.556;37.816;2022-11-20T16:08:43;35.65;;;15.38;;
62654;SDS011;48717;55.556;37.816;2022-11-20T16:11:12;30.92;;;13.70;;
62654;SDS011;48717;55.556;37.816;2022-11-20T16:13:41;32.58;;;15.05;;